createdAt,value
2023-01-11T00:02:44.474Z,5.72
2023-01-11T00:03:54.710Z,5.74
2023-01-11T00:04:43.273Z,5.74
2023-01-11T00:05:43.554Z,5.75
2023-01-11T00:06:45.319Z,5.75
2023-01-11T00:07:43.403Z,5.71
2023-01-11T00:08:45.175Z,5.71
2023-01-11T00:09:43.264Z,5.72
2023-01-11T00:10:43.300Z,5.71
2023-01-11T00:11:43.092Z,5.74
2023-01-11T00:12:43.396Z,5.72
2023-01-11T00:13:43.211Z,5.71
2023-01-11T00:14:43.716Z,5.72
2023-01-11T00:15:43.250Z,5.75
2023-01-11T00:16:43.185Z,5.71
2023-01-11T00:17:44.047Z,5.72
2023-01-11T00:18:43.502Z,5.75
2023-01-11T00:19:43.948Z,5.78
2023-01-11T00:20:43.872Z,5.76
2023-01-11T00:21:43.393Z,5.79
2023-01-11T00:22:43.555Z,5.79
2023-01-11T00:23:43.455Z,5.79
2023-01-11T00:24:43.578Z,5.81
2023-01-11T00:25:43.080Z,5.79
2023-01-11T00:26:43.323Z,5.78
2023-01-11T00:27:43.407Z,5.81
2023-01-11T00:28:43.209Z,5.79
2023-01-11T00:29:43.065Z,5.78
2023-01-11T00:30:43.368Z,5.79
2023-01-11T00:31:43.109Z,5.82
2023-01-11T00:32:43.105Z,5.81
2023-01-11T00:33:43.142Z,5.79
2023-01-11T00:34:43.053Z,5.82
2023-01-11T00:35:43.662Z,5.79
2023-01-11T00:36:43.195Z,5.82
2023-01-11T00:37:43.258Z,5.81
2023-01-11T00:38:43.092Z,5.79
2023-01-11T00:39:43.167Z,5.76
2023-01-11T00:40:43.139Z,5.76
2023-01-11T00:41:42.795Z,5.75
2023-01-11T00:42:42.991Z,5.76
2023-01-11T00:43:43.027Z,5.74
2023-01-11T00:44:43.195Z,5.75
2023-01-11T00:45:43.123Z,5.74
2023-01-11T00:46:42.936Z,5.75
2023-01-11T00:47:43.079Z,5.76
2023-01-11T00:48:43.176Z,5.76
2023-01-11T00:49:43.059Z,5.75
2023-01-11T00:50:43.033Z,5.68
2023-01-11T00:51:42.885Z,5.65
2023-01-11T00:52:43.311Z,5.68
2023-01-11T00:53:43.064Z,5.67
2023-01-11T00:54:42.734Z,5.68
2023-01-11T00:55:42.804Z,5.68
2023-01-11T00:56:42.725Z,5.68
2023-01-11T00:57:43.449Z,5.68
2023-01-11T00:58:42.615Z,5.71
2023-01-11T00:59:42.810Z,5.68
2023-01-11T01:00:42.592Z,5.71
2023-01-11T01:01:42.768Z,5.68
2023-01-11T01:02:42.747Z,5.67
2023-01-11T01:03:42.586Z,5.65
2023-01-11T01:04:42.829Z,5.65
2023-01-11T01:05:42.979Z,5.67
2023-01-11T01:06:42.682Z,5.67
2023-01-11T01:07:43.011Z,5.67
2023-01-11T01:08:42.598Z,5.67
2023-01-11T01:09:42.687Z,5.68
2023-01-11T01:10:42.603Z,5.68
2023-01-11T01:11:42.534Z,5.68
2023-01-11T01:12:42.606Z,5.74
2023-01-11T01:13:42.742Z,5.72
2023-01-11T01:14:42.882Z,5.68
2023-01-11T01:15:42.635Z,5.74
2023-01-11T01:16:42.525Z,5.75
2023-01-11T01:17:42.335Z,5.75
2023-01-11T01:18:42.412Z,5.74
2023-01-11T01:19:42.528Z,5.74
2023-01-11T01:20:47.163Z,5.75
2023-01-11T01:43:38.525Z,5.75
2023-01-11T01:44:38.745Z,5.72
2023-01-11T01:45:39.986Z,5.72
2023-01-11T02:00:59.515Z,5.81
2023-01-11T02:01:59.878Z,5.81
2023-01-11T02:02:59.909Z,5.81
2023-01-11T02:03:59.941Z,5.78
2023-01-11T02:04:59.983Z,5.81
2023-01-11T02:06:00.085Z,5.83
2023-01-11T02:06:59.772Z,5.82
2023-01-11T02:07:59.788Z,5.81
2023-01-11T02:08:59.788Z,5.81
2023-01-11T02:09:59.909Z,5.82
2023-01-11T02:10:59.744Z,5.79
2023-01-11T02:11:59.940Z,5.82
2023-01-11T02:12:59.660Z,5.82
2023-01-11T02:13:59.735Z,5.85
2023-01-11T02:14:59.701Z,5.89
2023-01-11T02:15:59.751Z,5.89
2023-01-11T02:16:59.646Z,5.93
2023-01-11T02:17:59.641Z,5.93
2023-01-11T02:18:59.654Z,5.94
2023-01-11T02:19:59.619Z,5.99
2023-01-11T02:20:59.620Z,5.99
2023-01-11T02:21:59.598Z,5.97
2023-01-11T02:30:51.268Z,6.00
2023-01-11T02:31:51.954Z,6.01
2023-01-11T02:32:51.840Z,6.04
2023-01-11T02:33:51.786Z,6.04
2023-01-11T02:34:52.317Z,6.04
2023-01-11T02:35:52.236Z,6.04
2023-01-11T02:36:51.829Z,6.09
2023-01-11T02:37:51.714Z,6.06
2023-01-11T02:38:51.924Z,6.06
2023-01-11T02:39:51.743Z,6.08
2023-01-11T02:40:51.814Z,6.08
2023-01-11T02:41:52.385Z,6.11
2023-01-11T02:45:01.596Z,6.11
2023-01-11T02:46:01.087Z,6.12
2023-01-11T02:47:01.032Z,6.12
2023-01-11T02:48:02.578Z,6.12
2023-01-11T02:49:01.515Z,6.14
2023-01-11T02:51:23.422Z,6.17
2023-01-11T02:52:23.878Z,6.17
2023-01-11T02:53:23.587Z,6.18
2023-01-11T02:54:23.979Z,6.17
2023-01-11T02:55:23.657Z,6.18
2023-01-11T02:56:24.028Z,6.19
2023-01-11T02:57:24.109Z,6.21
2023-01-11T02:58:23.871Z,6.19
2023-01-11T02:59:24.057Z,6.18
2023-01-11T03:00:24.094Z,6.18
2023-01-11T03:01:24.791Z,6.18
2023-01-11T03:02:23.899Z,6.18
2023-01-11T03:03:23.926Z,6.14
2023-01-11T03:04:24.054Z,6.18
2023-01-11T03:05:23.864Z,6.18
2023-01-11T03:06:23.885Z,6.19
2023-01-11T03:07:23.613Z,6.19
2023-01-11T03:08:23.778Z,6.19
2023-01-11T03:09:23.415Z,6.21
2023-01-11T03:10:23.808Z,6.22
2023-01-11T03:11:23.875Z,6.22
2023-01-11T03:12:24.237Z,6.22
2023-01-11T03:13:23.972Z,6.25
2023-01-11T03:14:23.789Z,6.22
2023-01-11T03:15:26.089Z,6.27
2023-01-11T03:16:25.442Z,6.25
2023-01-11T03:17:30.714Z,6.28
2023-01-11T03:18:23.787Z,6.28
2023-01-11T03:19:24.125Z,6.30
2023-01-11T03:20:23.218Z,6.33
2023-01-11T03:21:23.184Z,6.31
2023-01-11T03:22:23.188Z,6.31
2023-01-11T03:23:23.156Z,6.34
2023-01-11T03:24:23.115Z,6.38
2023-01-11T03:25:23.166Z,6.40
2023-01-11T03:26:23.085Z,6.41
2023-01-11T03:27:23.112Z,6.40
2023-01-11T03:28:23.057Z,6.41
2023-01-11T03:29:23.064Z,6.40
2023-01-11T03:30:23.312Z,6.43
2023-01-11T03:31:23.816Z,6.43
2023-01-11T03:32:23.817Z,6.44
2023-01-11T03:33:24.252Z,6.48
2023-01-11T03:34:23.325Z,6.49
2023-01-11T03:35:23.109Z,6.46
2023-01-11T03:36:23.026Z,6.44
2023-01-11T03:37:23.173Z,6.44
2023-01-11T03:38:23.446Z,6.48
2023-01-11T03:39:23.322Z,6.46
2023-01-11T03:40:23.195Z,6.44
2023-01-11T03:41:23.390Z,6.44
2023-01-11T03:42:25.297Z,6.44
2023-01-11T03:43:23.637Z,6.46
2023-01-11T03:44:23.397Z,6.46
2023-01-11T03:45:23.327Z,6.49
2023-01-11T03:46:23.521Z,6.49
2023-01-11T03:47:23.267Z,6.48
2023-01-11T03:49:45.157Z,6.52
2023-01-11T03:50:46.701Z,6.52
2023-01-11T03:51:45.089Z,6.51
2023-01-11T03:52:45.801Z,6.54
2023-01-11T03:53:48.154Z,6.52
2023-01-11T03:54:45.071Z,6.55
2023-01-11T03:55:45.157Z,6.55
2023-01-11T03:56:45.116Z,6.54
2023-01-11T03:57:44.812Z,6.56
2023-01-11T03:58:44.860Z,6.55
2023-01-11T03:59:45.010Z,6.54
2023-01-11T04:00:45.211Z,6.54
2023-01-11T04:01:45.102Z,6.54
2023-01-11T04:02:45.150Z,6.52
2023-01-11T04:03:45.710Z,6.52
2023-01-11T04:04:45.093Z,6.54
2023-01-11T04:05:45.601Z,6.54
2023-01-11T04:06:44.824Z,6.56
2023-01-11T04:07:46.777Z,6.58
2023-01-11T04:08:44.838Z,6.62
2023-01-11T04:09:44.787Z,6.61
2023-01-11T04:10:44.937Z,6.61
2023-01-11T04:11:44.865Z,6.62
2023-01-11T04:12:45.135Z,6.62
2023-01-11T04:13:44.877Z,6.66
2023-01-11T04:14:45.056Z,6.64
2023-01-11T04:15:45.147Z,6.64
2023-01-11T04:16:45.060Z,6.66
2023-01-11T04:17:44.744Z,6.67
2023-01-11T04:18:44.872Z,6.66
2023-01-11T04:19:44.693Z,6.64
2023-01-11T04:20:44.898Z,6.66
2023-01-11T04:21:44.425Z,6.66
2023-01-11T04:22:44.383Z,6.66
2023-01-11T04:23:44.346Z,6.67
2023-01-11T04:24:44.384Z,6.66
2023-01-11T04:25:44.366Z,6.69
2023-01-11T04:26:44.343Z,6.67
2023-01-11T04:27:44.314Z,6.62
2023-01-11T04:28:44.316Z,6.62
2023-01-11T04:29:44.406Z,6.62
2023-01-11T04:30:44.438Z,6.66
2023-01-11T04:31:44.394Z,6.67
2023-01-11T04:32:44.273Z,6.67
2023-01-11T04:33:44.244Z,6.66
2023-01-11T04:34:44.344Z,6.71
2023-01-11T04:35:44.469Z,6.71
2023-01-11T04:36:44.468Z,6.70
2023-01-11T04:37:44.247Z,6.70
2023-01-11T04:38:44.168Z,6.73
2023-01-11T04:39:44.372Z,6.74
2023-01-11T04:40:44.234Z,6.76
2023-01-11T04:41:44.185Z,6.76
2023-01-11T04:42:44.155Z,6.76
2023-01-11T04:43:44.138Z,6.79
2023-01-11T04:44:44.212Z,6.79
2023-01-11T04:45:44.268Z,6.74
2023-01-11T04:46:44.118Z,6.73
2023-01-11T04:47:44.147Z,6.74
2023-01-11T04:48:44.126Z,6.73
2023-01-11T04:49:44.140Z,6.73
2023-01-11T04:50:44.297Z,6.71
2023-01-11T04:51:44.753Z,6.76
2023-01-11T04:52:46.304Z,6.76
2023-01-11T04:53:44.445Z,6.76
2023-01-11T04:54:45.148Z,6.74
2023-01-11T04:56:06.540Z,6.76
2023-01-11T04:58:26.106Z,6.77
2023-01-11T04:59:26.089Z,6.73
2023-01-11T05:00:26.415Z,6.76
2023-01-11T05:01:26.246Z,6.71
2023-01-11T05:02:26.311Z,6.74
2023-01-11T05:03:47.016Z,6.71
2023-01-11T05:04:26.493Z,6.73
2023-01-11T05:05:26.914Z,6.74
2023-01-11T05:09:00.505Z,6.74
2023-01-11T05:10:00.296Z,6.74
2023-01-11T05:11:00.191Z,6.73
2023-01-11T05:12:05.985Z,6.74
2023-01-11T05:13:01.056Z,6.76
2023-01-11T05:14:01.783Z,6.79
2023-01-11T05:15:00.120Z,6.80
2023-01-11T05:16:00.259Z,6.79
2023-01-11T05:17:00.115Z,6.77
2023-01-11T05:18:00.235Z,6.81
2023-01-11T05:19:00.105Z,6.84
2023-01-11T05:20:00.122Z,6.81
2023-01-11T05:21:00.031Z,6.85
2023-01-11T05:22:00.220Z,6.81
2023-01-11T05:22:59.973Z,6.85
2023-01-11T05:24:00.222Z,6.87
2023-01-11T05:24:59.993Z,6.85
2023-01-11T05:26:00.011Z,6.88
2023-01-11T05:27:00.266Z,6.87
2023-01-11T05:27:59.949Z,6.89
2023-01-11T05:28:59.935Z,6.92
2023-01-11T05:29:59.941Z,6.92
2023-01-11T05:30:59.962Z,6.91
2023-01-11T05:32:00.001Z,6.88
2023-01-11T05:33:00.022Z,6.91
2023-01-11T05:33:59.917Z,6.89
2023-01-11T05:34:59.935Z,6.87
2023-01-11T05:36:00.037Z,6.85
2023-01-11T05:37:00.354Z,6.87
2023-01-11T05:37:59.845Z,6.85
2023-01-11T05:38:59.822Z,6.87
2023-01-11T05:39:59.825Z,6.88
2023-01-11T05:40:59.814Z,6.89
2023-01-11T05:41:59.831Z,6.87
2023-01-11T05:42:59.766Z,6.91
2023-01-11T05:43:59.821Z,6.89
2023-01-11T05:44:59.761Z,6.88
2023-01-11T05:45:59.824Z,6.88
2023-01-11T05:46:59.789Z,6.88
2023-01-11T05:47:59.763Z,6.89
2023-01-11T05:48:59.851Z,6.89
2023-01-11T05:49:59.776Z,6.89
2023-01-11T05:51:01.464Z,6.91
2023-01-11T05:51:59.773Z,6.89
2023-01-11T05:52:59.671Z,6.91
2023-01-11T05:54:00.039Z,6.92
2023-01-11T05:54:59.706Z,6.91
2023-01-11T05:55:59.960Z,6.91
2023-01-11T05:56:59.762Z,6.91
2023-01-11T05:57:59.747Z,6.91
2023-01-11T05:58:59.970Z,6.94
2023-01-11T05:59:59.679Z,6.94
2023-01-11T06:00:59.680Z,6.95
2023-01-11T06:01:59.695Z,6.92
2023-01-11T06:02:59.760Z,6.95
2023-01-11T06:03:59.642Z,6.92
2023-01-11T06:04:59.657Z,6.92
2023-01-11T06:06:00.102Z,6.91
2023-01-11T06:06:59.650Z,6.92
2023-01-11T06:07:59.628Z,6.92
2023-01-11T06:08:59.522Z,6.91
2023-01-11T06:09:59.495Z,6.91
2023-01-11T06:10:59.696Z,6.91
2023-01-11T06:11:59.543Z,6.91
2023-01-11T06:12:59.592Z,6.92
2023-01-11T06:13:59.515Z,6.91
2023-01-11T06:14:59.441Z,6.91
2023-01-11T06:15:59.509Z,6.91
2023-01-11T06:16:59.595Z,6.88
2023-01-11T06:17:59.420Z,6.89
2023-01-11T06:18:59.454Z,6.88
2023-01-11T06:20:00.202Z,6.88
2023-01-11T06:20:59.384Z,6.89
2023-01-11T06:21:59.373Z,6.89
2023-01-11T06:22:59.446Z,6.85
2023-01-11T06:23:59.369Z,6.88
2023-01-11T06:24:59.390Z,6.88
2023-01-11T06:25:59.402Z,6.89
2023-01-11T06:26:59.415Z,6.88
2023-01-11T06:27:59.394Z,6.88
2023-01-11T06:28:59.406Z,6.89
2023-01-11T06:29:59.323Z,6.91
2023-01-11T06:30:59.996Z,6.92
2023-01-11T06:31:59.625Z,6.92
2023-01-11T06:32:59.280Z,6.92
2023-01-11T06:33:59.290Z,6.94
2023-01-11T06:34:59.266Z,6.91
2023-01-11T06:35:59.248Z,6.95
2023-01-11T06:36:59.218Z,6.95
2023-01-11T06:37:59.199Z,6.94
2023-01-11T06:38:59.163Z,6.95
2023-01-11T06:39:59.157Z,6.94
2023-01-11T06:41:00.459Z,6.94
2023-01-11T06:41:59.197Z,6.94
2023-01-11T06:42:59.196Z,6.95
2023-01-11T06:43:59.198Z,6.94
2023-01-11T06:44:59.153Z,6.97
2023-01-11T06:45:59.188Z,6.98
2023-01-11T06:46:59.286Z,6.98
2023-01-11T06:47:59.131Z,6.95
2023-01-11T06:48:59.082Z,6.97
2023-01-11T06:49:59.141Z,6.97
2023-01-11T06:50:59.043Z,6.95
2023-01-11T06:51:59.052Z,6.97
2023-01-11T06:52:59.026Z,6.94
2023-01-11T06:53:59.020Z,6.95
2023-01-11T06:54:59.096Z,6.95
2023-01-11T06:55:59.085Z,6.95
2023-01-11T06:56:59.005Z,6.95
2023-01-11T06:57:58.985Z,6.94
2023-01-11T06:58:59.019Z,6.94
2023-01-11T06:59:58.920Z,6.92
2023-01-11T07:00:59.025Z,6.94
2023-01-11T07:01:58.931Z,6.92
2023-01-11T07:02:58.922Z,6.95
2023-01-11T07:03:59.335Z,6.95
2023-01-11T07:04:58.940Z,6.95
2023-01-11T07:05:59.185Z,6.97
2023-01-11T07:06:58.870Z,6.98
2023-01-11T07:07:58.979Z,6.99
2023-01-11T07:08:58.853Z,6.99
2023-01-11T07:09:58.892Z,6.98
2023-01-11T07:10:59.182Z,6.95
2023-01-11T07:11:58.952Z,6.95
2023-01-11T07:12:58.808Z,6.97
2023-01-11T07:13:58.830Z,6.98
2023-01-11T07:14:58.792Z,6.98
2023-01-11T07:15:58.887Z,6.98
2023-01-11T07:16:58.773Z,7.03
2023-01-11T07:17:58.741Z,7.02
2023-01-11T07:18:58.860Z,7.03
2023-01-11T07:19:58.752Z,7.05
2023-01-11T07:20:58.731Z,7.03
2023-01-11T07:21:58.750Z,7.03
2023-01-11T07:22:58.710Z,7.05
2023-01-11T07:23:58.712Z,7.09
2023-01-11T07:24:58.700Z,7.09
2023-01-11T07:25:58.769Z,7.10
2023-01-11T07:26:58.677Z,7.09
2023-01-11T07:27:58.684Z,7.12
2023-01-11T07:28:58.644Z,7.13
2023-01-11T07:29:58.664Z,7.15
2023-01-11T07:30:59.947Z,7.20
2023-01-11T07:31:58.602Z,7.17
2023-01-11T07:32:58.659Z,7.21
2023-01-11T07:33:58.615Z,7.20
2023-01-11T07:34:58.585Z,7.20
2023-01-11T07:35:58.574Z,7.16
2023-01-11T07:36:58.574Z,7.17
2023-01-11T07:37:58.658Z,7.16
2023-01-11T07:38:58.547Z,7.16
2023-01-11T07:39:58.537Z,7.17
2023-01-11T07:40:58.549Z,7.16
2023-01-11T07:41:58.527Z,7.21
2023-01-11T07:42:58.518Z,7.21
2023-01-11T07:43:58.501Z,7.20
2023-01-11T07:44:58.527Z,7.23
2023-01-11T07:45:58.617Z,7.23
2023-01-11T07:46:58.488Z,7.25
2023-01-11T07:47:58.462Z,7.23
2023-01-11T07:48:58.446Z,7.23
2023-01-11T07:49:58.750Z,7.25
2023-01-11T07:50:58.447Z,7.23
2023-01-11T07:51:58.641Z,7.25
2023-01-11T07:52:59.099Z,7.27
2023-01-11T07:53:58.485Z,7.27
2023-01-11T07:54:58.887Z,7.27
2023-01-11T07:55:58.390Z,7.28
2023-01-11T07:56:58.401Z,7.28
2023-01-11T07:57:58.431Z,7.30
2023-01-11T07:58:58.329Z,7.31
2023-01-11T07:59:58.414Z,7.31
2023-01-11T08:00:58.369Z,7.31
2023-01-11T08:01:58.299Z,7.27
2023-01-11T08:02:58.428Z,7.31
2023-01-11T08:03:58.340Z,7.32
2023-01-11T08:04:58.276Z,7.31
2023-01-11T08:05:58.411Z,7.32
2023-01-11T08:06:58.691Z,7.34
2023-01-11T08:07:58.240Z,7.32
2023-01-11T08:08:58.220Z,7.35
2023-01-11T08:09:58.310Z,7.39
2023-01-11T08:10:58.589Z,7.40
2023-01-11T08:11:58.272Z,7.40
2023-01-11T08:12:58.304Z,7.42
2023-01-11T08:13:59.052Z,7.42
2023-01-11T08:14:58.224Z,7.45
2023-01-11T08:15:58.318Z,7.46
2023-01-11T08:16:58.228Z,7.46
2023-01-11T08:17:58.156Z,7.46
2023-01-11T08:18:58.221Z,7.49
2023-01-11T08:19:58.126Z,7.50
2023-01-11T08:20:58.155Z,7.48
2023-01-11T08:21:58.109Z,7.50
2023-01-11T08:22:58.122Z,7.50
2023-01-11T08:23:58.075Z,7.55
2023-01-11T08:24:58.094Z,7.55
2023-01-11T08:25:58.138Z,7.58
2023-01-11T08:26:58.143Z,7.60
2023-01-11T08:27:58.046Z,7.60
2023-01-11T08:28:58.009Z,7.60
2023-01-11T08:29:58.094Z,7.63
2023-01-11T08:30:58.087Z,7.60
2023-01-11T08:31:58.177Z,7.60
2023-01-11T08:32:57.976Z,7.63
2023-01-11T08:33:58.075Z,7.64
2023-01-11T08:34:57.947Z,7.64
2023-01-11T08:35:58.062Z,7.64
2023-01-11T08:36:57.955Z,7.67
2023-01-11T08:37:58.018Z,7.72
2023-01-11T08:38:57.950Z,7.71
2023-01-11T08:39:57.955Z,7.72
2023-01-11T08:40:58.052Z,7.74
2023-01-11T08:41:57.894Z,7.72
2023-01-11T08:42:57.927Z,7.74
2023-01-11T08:43:57.887Z,7.74
2023-01-11T08:44:57.887Z,7.79
2023-01-11T08:45:57.915Z,7.82
2023-01-11T08:46:57.911Z,7.80
2023-01-11T08:47:59.456Z,7.83
2023-01-11T08:48:58.177Z,7.83
2023-01-11T08:49:57.871Z,7.85
2023-01-11T08:50:57.890Z,7.85
2023-01-11T08:51:57.782Z,7.85
2023-01-11T08:52:57.808Z,7.87
2023-01-11T08:53:57.899Z,7.90
2023-01-11T08:54:57.790Z,7.90
2023-01-11T08:55:57.772Z,7.90
2023-01-11T08:56:57.793Z,7.90
2023-01-11T08:57:57.701Z,7.93
2023-01-11T08:58:57.820Z,7.93
2023-01-11T08:59:57.710Z,7.93
2023-01-11T09:00:57.676Z,7.97
2023-01-11T09:01:57.792Z,8.00
2023-01-11T09:02:57.812Z,7.98
2023-01-11T09:03:57.842Z,8.01
2023-01-11T09:04:58.042Z,8.04
2023-01-11T09:05:57.673Z,8.04
2023-01-11T09:06:57.674Z,8.08
2023-01-11T09:07:57.653Z,8.07
2023-01-11T09:08:57.685Z,8.07
2023-01-11T09:09:57.658Z,8.05
2023-01-11T09:10:57.703Z,8.07
2023-01-11T09:11:57.606Z,8.07
2023-01-11T09:12:57.647Z,8.08
2023-01-11T09:13:57.564Z,8.08
2023-01-11T09:14:57.637Z,8.11
2023-01-11T09:15:57.666Z,8.10
2023-01-11T09:16:57.538Z,8.11
2023-01-11T09:17:57.663Z,8.15
2023-01-11T09:18:57.493Z,8.16
2023-01-11T09:19:57.614Z,8.16
2023-01-11T09:20:57.545Z,8.15
2023-01-11T09:21:57.494Z,8.19
2023-01-11T09:22:57.505Z,8.23
2023-01-11T09:23:57.444Z,8.28
2023-01-11T09:24:57.433Z,8.29
2023-01-11T09:25:57.533Z,8.28
2023-01-11T09:26:57.444Z,8.28
2023-01-11T09:27:57.407Z,8.29
2023-01-11T09:28:57.439Z,8.30
2023-01-11T09:29:57.365Z,8.30
2023-01-11T09:30:57.774Z,8.29
2023-01-11T09:31:57.510Z,8.29
2023-01-11T09:32:57.455Z,8.28
2023-01-11T09:33:57.369Z,8.33
2023-01-11T09:34:57.362Z,8.28
2023-01-11T09:35:57.367Z,8.29
2023-01-11T09:36:57.387Z,8.28
2023-01-11T09:37:57.710Z,8.33
2023-01-11T09:38:57.828Z,8.30
2023-01-11T09:39:57.730Z,8.30
2023-01-11T09:40:57.402Z,8.29
2023-01-11T09:41:57.402Z,8.28
2023-01-11T09:42:57.614Z,8.26
2023-01-11T09:43:57.367Z,8.30
2023-01-11T09:44:57.654Z,8.28
2023-01-11T09:45:57.312Z,8.26
2023-01-11T09:46:57.258Z,8.29
2023-01-11T09:47:57.261Z,8.25
2023-01-11T09:48:57.222Z,8.23
2023-01-11T09:49:57.196Z,8.19
2023-01-11T09:50:57.226Z,8.18
2023-01-11T09:51:59.769Z,8.16
2023-01-11T09:52:58.083Z,8.15
2023-01-11T09:53:57.259Z,8.15
2023-01-11T09:54:57.230Z,8.15
2023-01-11T09:56:05.129Z,8.11
2023-01-11T09:56:57.113Z,8.08
2023-01-11T09:57:57.190Z,8.10
2023-01-11T09:58:57.202Z,8.11
2023-01-11T09:59:57.132Z,8.11
2023-01-11T10:00:59.584Z,8.12
2023-01-11T10:01:57.169Z,8.10
2023-01-11T10:02:57.123Z,8.11
2023-01-11T10:03:57.342Z,8.10
2023-01-11T10:04:58.522Z,8.10
2023-01-11T10:05:58.713Z,8.08
2023-01-11T10:06:57.063Z,8.07
2023-01-11T10:18:26.728Z,8.07
2023-01-11T10:18:27.904Z,8.11
2023-01-11T10:18:29.208Z,8.10
2023-01-11T10:18:39.108Z,8.08
2023-01-11T10:19:25.109Z,8.08
2023-01-11T10:19:58.019Z,8.08
2023-01-11T10:20:56.856Z,8.12
2023-01-11T10:21:56.867Z,8.12
2023-01-11T10:22:57.130Z,8.10
2023-01-11T10:23:56.869Z,8.11
2023-01-11T10:24:56.893Z,8.11
2023-01-11T10:25:56.876Z,8.11
2023-01-11T10:26:57.238Z,8.11
2023-01-11T10:27:57.127Z,8.16
2023-01-11T10:28:57.329Z,8.18
2023-01-11T10:29:56.921Z,8.16
2023-01-11T10:30:56.764Z,8.15
2023-01-11T10:31:56.852Z,8.18
2023-01-11T10:32:56.958Z,8.18
2023-01-11T10:33:56.751Z,8.15
2023-01-11T10:34:56.747Z,8.15
2023-01-11T10:35:56.725Z,8.11
2023-01-11T10:36:57.206Z,8.11
2023-01-11T10:37:56.812Z,8.11
2023-01-11T10:38:56.745Z,8.12
2023-01-11T10:39:56.718Z,8.16
2023-01-11T10:40:56.656Z,8.19
2023-01-11T10:41:56.713Z,8.18
2023-01-11T10:42:56.673Z,8.19
2023-01-11T10:43:57.360Z,8.18
2023-01-11T10:44:56.744Z,8.19
2023-01-11T10:45:56.719Z,8.18
2023-01-11T10:46:56.986Z,8.15
2023-01-11T10:47:56.679Z,8.16
2023-01-11T10:48:56.732Z,8.19
2023-01-11T10:49:56.727Z,8.12
2023-01-11T10:50:56.887Z,8.16
2023-01-11T10:51:56.770Z,8.12
2023-01-11T10:52:56.973Z,8.16
2023-01-11T10:53:56.696Z,8.18
2023-01-11T10:54:56.680Z,8.18
2023-01-11T10:55:56.772Z,8.20
2023-01-11T10:57:02.584Z,8.22
2023-01-11T10:57:59.916Z,8.22
2023-01-11T10:58:56.668Z,8.22
2023-01-11T10:59:56.628Z,8.25
2023-01-11T11:00:56.742Z,8.25
2023-01-11T11:01:56.771Z,8.28
2023-01-11T11:02:56.987Z,8.37
2023-01-11T11:03:56.434Z,8.43
2023-01-11T11:04:56.443Z,8.45
2023-01-11T11:05:56.598Z,8.40
2023-01-11T11:06:56.707Z,8.40
2023-01-11T11:07:56.648Z,8.40
2023-01-11T11:08:58.768Z,8.36
2023-01-11T11:09:56.851Z,8.40
2023-01-11T11:10:56.706Z,8.30
2023-01-11T11:11:56.462Z,8.28
2023-01-11T11:12:57.418Z,8.28
2023-01-11T11:13:57.270Z,8.30
2023-01-11T11:14:56.588Z,8.28
2023-01-11T11:15:57.655Z,8.30
2023-01-11T11:16:57.662Z,8.30
2023-01-11T11:17:56.795Z,8.33
2023-01-11T11:18:57.862Z,8.30
2023-01-11T11:19:57.181Z,8.29
2023-01-11T11:20:57.356Z,8.30
2023-01-11T11:21:56.741Z,8.28
2023-01-11T11:22:57.015Z,8.28
2023-01-11T11:23:57.131Z,8.28
2023-01-11T11:24:56.744Z,8.25
2023-01-11T11:25:56.324Z,8.29
2023-01-11T11:26:56.625Z,8.30
2023-01-11T11:27:56.223Z,8.29
2023-01-11T11:28:56.817Z,8.30
2023-01-11T11:29:56.211Z,8.28
2023-01-11T11:30:56.576Z,8.25
2023-01-11T11:31:56.284Z,8.29
2023-01-11T11:32:56.233Z,8.26
2023-01-11T11:33:56.211Z,8.25
2023-01-11T11:34:56.169Z,8.29
2023-01-11T11:35:56.434Z,8.28
2023-01-11T11:36:56.156Z,8.26
2023-01-11T11:37:56.681Z,8.28
2023-01-11T11:38:56.192Z,8.26
2023-01-11T11:39:56.260Z,8.26
2023-01-11T11:40:56.102Z,8.25
2023-01-11T11:41:56.155Z,8.25
2023-01-11T11:42:56.393Z,8.25
2023-01-11T11:43:56.445Z,8.28
2023-01-11T11:44:56.197Z,8.23
2023-01-11T11:45:56.503Z,8.18
2023-01-11T11:46:59.269Z,8.19
2023-01-11T11:47:56.077Z,8.19
2023-01-11T11:48:56.287Z,8.15
2023-01-11T11:49:56.151Z,8.15
2023-01-11T11:50:57.489Z,8.15
2023-01-11T11:51:56.225Z,8.18
2023-01-11T11:52:56.768Z,8.18
2023-01-11T11:53:56.100Z,8.19
2023-01-11T11:54:56.018Z,8.12
2023-01-11T11:55:55.995Z,8.15
2023-01-11T11:56:56.009Z,8.16
2023-01-11T11:57:56.383Z,8.19
2023-01-11T11:58:56.240Z,8.16
2023-01-11T11:59:56.846Z,8.18
2023-01-11T12:00:56.042Z,8.20
2023-01-11T12:01:56.251Z,8.25
2023-01-11T12:02:57.153Z,8.25
2023-01-11T12:03:55.890Z,8.22
2023-01-11T12:04:55.892Z,8.23
2023-01-11T12:05:56.117Z,8.25
2023-01-11T12:06:55.959Z,8.25
2023-01-11T12:07:56.007Z,8.20
2023-01-11T12:08:55.765Z,8.23
2023-01-11T12:09:55.743Z,8.23
2023-01-11T12:10:55.788Z,8.23
2023-01-11T12:11:55.706Z,8.29
2023-01-11T12:12:55.737Z,8.28
2023-01-11T12:13:55.904Z,8.26
2023-01-11T12:14:55.767Z,8.29
2023-01-11T12:15:56.597Z,8.29
2023-01-11T12:16:55.787Z,8.33
2023-01-11T12:17:56.694Z,8.34
2023-01-11T12:18:56.075Z,8.36
2023-01-11T12:19:55.686Z,8.33
2023-01-11T12:20:55.747Z,8.34
2023-01-11T12:21:55.657Z,8.40
2023-01-11T12:22:55.596Z,8.40
2023-01-11T12:23:55.675Z,8.41
2023-01-11T12:24:55.562Z,8.45
2023-01-11T12:25:55.630Z,8.48
2023-01-11T12:26:55.724Z,8.48
2023-01-11T12:27:55.553Z,8.52
2023-01-11T12:28:55.558Z,8.50
2023-01-11T12:29:55.556Z,8.53
2023-01-11T12:30:55.764Z,8.52
2023-01-11T12:31:55.612Z,8.52
2023-01-11T12:32:55.585Z,8.52
2023-01-11T12:33:55.599Z,8.55
2023-01-11T12:34:55.551Z,8.53
2023-01-11T12:35:55.576Z,8.53
2023-01-11T12:36:55.726Z,8.52
2023-01-11T12:38:04.313Z,8.56
2023-01-11T12:38:55.624Z,8.56
2023-01-11T12:39:55.809Z,8.56
2023-01-11T12:40:55.460Z,8.56
2023-01-11T12:41:55.888Z,8.55
2023-01-11T12:42:55.531Z,8.52
2023-01-11T12:43:56.011Z,8.50
2023-01-11T12:44:55.444Z,8.48
2023-01-11T12:45:59.277Z,8.52
2023-01-11T12:46:55.419Z,8.52
2023-01-11T12:47:56.579Z,8.52
2023-01-11T12:48:55.579Z,8.52
2023-01-11T12:49:56.764Z,8.55
2023-01-11T12:50:55.419Z,8.50
2023-01-11T12:51:56.804Z,8.53
2023-01-11T12:52:56.238Z,8.55
2023-01-11T12:53:55.992Z,8.56
2023-01-11T12:54:55.322Z,8.59
2023-01-11T12:55:55.431Z,8.56
2023-01-11T12:57:00.833Z,8.55
2023-01-11T12:57:55.359Z,8.58
2023-01-11T12:58:55.574Z,8.61
2023-01-11T12:59:55.674Z,8.59
2023-01-11T13:00:55.737Z,8.58
2023-01-11T13:01:55.306Z,8.61
2023-01-11T13:02:55.913Z,8.61
2023-01-11T13:03:55.427Z,8.63
2023-01-11T13:04:55.579Z,8.63
2023-01-11T13:05:55.343Z,8.62
2023-01-11T13:06:55.374Z,8.66
2023-01-11T13:07:55.211Z,8.65
2023-01-11T13:08:55.294Z,8.65
2023-01-11T13:09:55.868Z,8.65
2023-01-11T13:10:55.328Z,8.61
2023-01-11T13:11:55.979Z,8.61
2023-01-11T13:12:55.406Z,8.62
2023-01-11T13:13:55.529Z,8.65
2023-01-11T13:14:55.816Z,8.62
2023-01-11T13:15:55.800Z,8.63
2023-01-11T13:16:55.336Z,8.62
2023-01-11T13:17:55.412Z,8.59
2023-01-11T13:18:55.417Z,8.62
2023-01-11T13:19:55.626Z,8.59
2023-01-11T13:21:02.154Z,8.63
2023-01-11T13:21:57.261Z,8.62
2023-01-11T13:23:06.081Z,8.65
2023-01-11T13:23:55.575Z,8.62
2023-01-11T13:24:55.527Z,8.63
2023-01-11T13:25:54.939Z,8.61
2023-01-11T13:26:55.042Z,8.61
2023-01-11T13:27:55.220Z,8.61
2023-01-11T13:28:55.548Z,8.59
2023-01-11T13:29:55.485Z,8.58
2023-01-11T13:30:54.963Z,8.59
2023-01-11T13:31:56.931Z,8.59
2023-01-11T13:32:57.654Z,8.58
2023-01-11T13:33:55.151Z,8.58
2023-01-11T13:34:57.286Z,8.55
2023-01-11T13:35:55.759Z,8.53
2023-01-11T13:36:59.491Z,8.53
2023-01-11T13:37:56.589Z,8.55
2023-01-11T13:40:28.714Z,8.59
2023-01-11T13:41:28.824Z,8.56
2023-01-11T13:42:29.807Z,8.59
2023-01-11T13:43:28.794Z,8.59
2023-01-11T13:44:28.789Z,8.63
2023-01-11T13:45:28.808Z,8.62
2023-01-11T13:46:28.916Z,8.62
2023-01-11T13:47:28.778Z,8.66
2023-01-11T13:48:28.867Z,8.63
2023-01-11T13:49:28.810Z,8.70
2023-01-11T13:50:28.738Z,8.71
2023-01-11T13:51:28.925Z,8.68
2023-01-11T13:52:28.955Z,8.71
2023-01-11T13:53:28.725Z,8.68
2023-01-11T13:54:28.703Z,8.70
2023-01-11T13:55:28.767Z,8.71
2023-01-11T13:56:28.810Z,8.71
2023-01-11T13:57:28.644Z,8.70
2023-01-11T13:58:28.931Z,8.70
2023-01-11T13:59:29.315Z,8.71
2023-01-11T14:00:28.792Z,8.74
2023-01-11T14:01:29.339Z,8.73
2023-01-11T14:02:28.675Z,8.74
2023-01-11T14:03:29.115Z,8.74
2023-01-11T14:04:28.621Z,8.76
2023-01-11T14:05:28.705Z,8.74
2023-01-11T14:06:29.249Z,8.74
2023-01-11T14:07:28.568Z,8.76
2023-01-11T14:08:28.608Z,8.76
2023-01-11T14:09:28.634Z,8.77
2023-01-11T14:10:28.697Z,8.79
2023-01-11T14:11:28.666Z,8.77
2023-01-11T14:12:28.527Z,8.80
2023-01-11T14:13:28.508Z,8.76
2023-01-11T14:14:28.690Z,8.77
2023-01-11T14:15:28.516Z,8.77
2023-01-11T14:16:28.515Z,8.77
2023-01-11T14:17:28.535Z,8.77
2023-01-11T14:18:28.441Z,8.81
2023-01-11T14:19:28.479Z,8.77
2023-01-11T14:20:28.594Z,8.79
2023-01-11T14:21:28.406Z,8.80
2023-01-11T14:22:28.452Z,8.79